createdAt,value
2016-04-23T00:00:21.779Z,998.16
2016-04-23T00:01:21.829Z,998.14
2016-04-23T00:02:21.863Z,998.16
2016-04-23T00:03:21.896Z,998.14
2016-04-23T00:04:21.946Z,998.12
2016-04-23T00:05:21.980Z,998.12
2016-04-23T00:06:22.014Z,998.08
2016-04-23T00:07:22.048Z,998.08
2016-04-23T00:08:22.098Z,998.07
2016-04-23T00:09:22.131Z,998.07
2016-04-23T00:10:22.166Z,998.05
2016-04-23T00:11:22.199Z,998.06
2016-04-23T00:12:22.249Z,998.05
2016-04-23T00:13:22.282Z,998.01
2016-04-23T00:14:22.317Z,997.97
2016-04-23T00:15:22.367Z,997.98
2016-04-23T00:16:22.400Z,997.97
2016-04-23T00:17:22.434Z,997.93
2016-04-23T00:18:22.484Z,997.92
2016-04-23T00:19:22.518Z,997.91
2016-04-23T00:20:22.551Z,997.89
2016-04-23T00:21:22.586Z,997.89
2016-04-23T00:22:22.636Z,997.89
2016-04-23T00:23:22.669Z,997.89
2016-04-23T00:24:22.703Z,997.88
2016-04-23T00:25:22.737Z,997.83
2016-04-23T00:26:22.802Z,997.84
2016-04-23T00:27:22.820Z,997.83
2016-04-23T00:28:22.855Z,997.84
2016-04-23T00:29:22.888Z,997.82
2016-04-23T00:30:22.938Z,997.8
2016-04-23T00:31:22.972Z,997.77
2016-04-23T00:32:23.022Z,997.76
2016-04-23T00:33:23.071Z,997.78
2016-04-23T00:34:23.089Z,997.79
2016-04-23T00:35:23.124Z,997.77
2016-04-23T00:36:23.157Z,997.75
2016-04-23T00:37:23.207Z,997.72
2016-04-23T00:38:23.241Z,997.7
2016-04-23T00:39:23.274Z,997.68
2016-04-23T00:40:23.324Z,997.7
2016-04-23T00:41:23.374Z,997.67
2016-04-23T00:42:23.392Z,997.69
2016-04-23T00:43:23.442Z,997.65
2016-04-23T00:44:23.507Z,997.63
2016-04-23T00:45:23.510Z,997.63
2016-04-23T00:46:23.543Z,997.6
2016-04-23T00:47:23.593Z,997.59
2016-04-23T00:48:23.627Z,997.56
2016-04-23T00:49:23.676Z,997.52
2016-04-23T00:50:23.711Z,997.53
2016-04-23T00:51:23.744Z,997.51
2016-04-23T00:52:23.779Z,997.49
2016-04-23T00:53:23.828Z,997.47
2016-04-23T00:54:23.878Z,997.47
2016-04-23T00:55:23.927Z,997.47
2016-04-23T00:56:23.945Z,997.46
2016-04-23T00:57:23.964Z,997.44
2016-04-23T00:58:24.013Z,997.45
2016-04-23T00:59:24.047Z,997.43
2016-04-23T01:00:24.081Z,997.4
2016-04-23T01:01:24.116Z,997.36
2016-04-23T01:02:24.164Z,997.41
2016-04-23T01:03:24.198Z,997.4
2016-04-23T01:04:24.232Z,997.35
2016-04-23T01:05:24.267Z,997.37
2016-04-23T01:06:24.347Z,997.39
2016-04-23T01:07:24.365Z,997.4
2016-04-23T01:08:24.385Z,997.35
2016-04-23T01:09:24.433Z,997.34
2016-04-23T01:10:24.483Z,997.36
2016-04-23T01:11:24.501Z,997.35
2016-04-23T01:12:24.536Z,997.35
2016-04-23T01:13:24.585Z,997.36
2016-04-23T01:14:24.618Z,997.34
2016-04-23T01:15:24.653Z,997.34
2016-04-23T01:16:24.686Z,997.33
2016-04-23T01:17:24.752Z,997.32
2016-04-23T01:18:24.770Z,997.33
2016-04-23T01:19:24.804Z,997.31
2016-04-23T01:20:24.838Z,997.28
2016-04-23T01:21:24.888Z,997.29
2016-04-23T01:22:24.922Z,997.25
2016-04-23T01:23:24.955Z,997.25
2016-04-23T01:24:24.990Z,997.24
2016-04-23T01:25:25.023Z,997.27
2016-04-23T01:26:25.073Z,997.22
2016-04-23T01:27:25.122Z,997.19
2016-04-23T01:28:25.172Z,997.19
2016-04-23T01:29:25.175Z,997.2
2016-04-23T01:30:25.224Z,997.16
2016-04-23T01:31:25.258Z,997.21
2016-04-23T01:32:25.292Z,997.21
2016-04-23T01:33:25.327Z,997.15
2016-04-23T01:34:25.375Z,997.14
2016-04-23T01:35:25.410Z,997.19
2016-04-23T01:36:25.444Z,997.15
2016-04-23T01:37:25.493Z,997.14
2016-04-23T01:38:25.527Z,997.12
2016-04-23T01:39:25.561Z,997.08
2016-04-23T01:40:25.595Z,997.09
2016-04-23T01:41:25.629Z,997.07
2016-04-23T01:42:25.679Z,997.09
2016-04-23T01:43:25.743Z,997.09
2016-04-23T01:44:25.746Z,997.08
2016-04-23T01:45:25.780Z,997.09
2016-04-23T01:46:25.830Z,997.11
2016-04-23T01:47:25.864Z,997.07
2016-04-23T01:48:25.898Z,997.08
2016-04-23T01:49:25.932Z,997.08
2016-04-23T01:50:25.981Z,997.07
2016-04-23T01:51:26.015Z,997.01
2016-04-23T01:52:26.048Z,997.02
2016-04-23T01:53:26.084Z,997.01
2016-04-23T01:54:26.148Z,996.99
2016-04-23T01:55:26.166Z,996.94
2016-04-23T01:56:26.201Z,997.03
2016-04-23T01:57:26.234Z,996.94
2016-04-23T01:58:26.300Z,996.96
2016-04-23T01:59:26.317Z,996.93
2016-04-23T02:00:26.353Z,996.92
2016-04-23T02:01:26.386Z,996.91
2016-04-23T02:02:26.450Z,996.89
2016-04-23T02:03:26.453Z,996.88
2016-04-23T02:04:26.502Z,996.89
2016-04-23T02:05:26.538Z,996.84
2016-04-23T02:06:26.586Z,996.86
2016-04-23T02:07:26.605Z,996.82
2016-04-23T02:08:26.655Z,996.84
2016-04-23T02:09:26.689Z,996.78
2016-04-23T02:10:26.722Z,996.76
2016-04-23T02:11:26.771Z,996.76
2016-04-23T02:12:26.807Z,996.74
2016-04-23T02:13:26.840Z,996.75
2016-04-23T02:14:26.874Z,996.73
2016-04-23T02:15:26.907Z,996.69
2016-04-23T02:16:26.942Z,996.73
2016-04-23T02:17:27.007Z,996.79
2016-04-23T02:18:27.025Z,996.79
2016-04-23T02:19:27.059Z,996.77
2016-04-23T02:20:27.093Z,996.79
2016-04-23T02:21:27.127Z,996.79
2016-04-23T02:22:27.170Z,996.8
2016-04-23T02:23:27.205Z,996.75
2016-04-23T02:24:27.255Z,996.72
2016-04-23T02:25:27.335Z,996.75
2016-04-23T02:26:27.322Z,996.75
2016-04-23T02:27:27.355Z,996.73
2016-04-23T02:28:27.391Z,996.73
2016-04-23T02:29:27.439Z,996.72
2016-04-23T02:30:27.474Z,996.71
2016-04-23T02:31:27.508Z,996.73
2016-04-23T02:32:27.557Z,996.71
2016-04-23T02:33:27.591Z,996.7
2016-04-23T02:34:27.640Z,996.73
2016-04-23T02:35:27.659Z,996.7
2016-04-23T02:36:27.693Z,996.77
2016-04-23T02:37:27.743Z,996.73
2016-04-23T02:38:27.776Z,996.71
2016-04-23T02:39:27.810Z,996.72
2016-04-23T02:40:27.844Z,996.64
2016-04-23T02:41:27.893Z,996.65
2016-04-23T02:42:27.928Z,996.65
2016-04-23T02:43:27.962Z,996.6
2016-04-23T02:44:28.027Z,996.65
2016-04-23T02:45:28.045Z,996.66
2016-04-23T02:46:28.079Z,996.65
2016-04-23T02:47:28.113Z,996.65
2016-04-23T02:48:28.162Z,996.63
2016-04-23T02:49:28.197Z,996.62
2016-04-23T02:50:28.230Z,996.62
2016-04-23T02:51:28.265Z,996.58
2016-04-23T02:52:28.314Z,996.59
2016-04-23T02:53:28.347Z,996.6
2016-04-23T02:54:28.382Z,996.64
2016-04-23T02:55:28.431Z,996.6
2016-04-23T02:56:28.450Z,996.64
2016-04-23T02:57:28.499Z,996.61
2016-04-23T02:58:28.534Z,996.59
2016-04-23T02:59:28.567Z,996.66
2016-04-23T03:00:28.601Z,996.62
2016-04-23T03:01:28.650Z,996.59
2016-04-23T03:02:28.685Z,996.66
2016-04-23T03:03:28.719Z,996.58
2016-04-23T03:04:28.752Z,996.6
2016-04-23T03:05:28.802Z,996.6
2016-04-23T03:06:28.852Z,996.6
2016-04-23T03:07:28.870Z,996.63
2016-04-23T03:08:28.904Z,996.61
2016-04-23T03:09:28.938Z,996.63
2016-04-23T03:10:28.988Z,996.61
2016-04-23T03:11:29.021Z,996.61
2016-04-23T03:12:29.054Z,996.57
2016-04-23T03:13:29.090Z,996.61
2016-04-23T03:14:29.139Z,996.59
2016-04-23T03:15:29.172Z,996.58
2016-04-23T03:16:29.207Z,996.57
2016-04-23T03:17:29.272Z,996.55
2016-04-23T03:18:29.290Z,996.55
2016-04-23T03:19:29.324Z,996.56
2016-04-23T03:20:29.359Z,996.55
2016-04-23T03:21:29.392Z,996.57
2016-04-23T03:22:29.442Z,996.52
2016-04-23T03:23:29.475Z,996.56
2016-04-23T03:24:29.525Z,996.5
2016-04-23T03:25:29.543Z,996.55
2016-04-23T03:26:29.592Z,996.53
2016-04-23T03:27:29.628Z,996.55
2016-04-23T03:28:29.661Z,996.54
2016-04-23T03:29:29.695Z,996.54
2016-04-23T03:30:29.744Z,996.57
2016-04-23T03:31:29.778Z,996.54
2016-04-23T03:32:29.813Z,996.53
2016-04-23T03:33:29.846Z,996.51
2016-04-23T03:34:29.880Z,996.48
2016-04-23T03:35:29.930Z,996.5
2016-04-23T03:36:29.964Z,996.51
2016-04-23T03:37:29.997Z,996.53
2016-04-23T03:38:30.032Z,996.53
2016-04-23T03:39:30.082Z,996.53
2016-04-23T03:40:30.115Z,996.52
2016-04-23T03:41:30.148Z,996.53
2016-04-23T03:42:30.182Z,996.54
2016-04-23T03:43:30.233Z,996.51
2016-04-23T03:44:30.266Z,996.57
2016-04-23T03:45:30.301Z,996.56
2016-04-23T03:46:30.350Z,996.54
2016-04-23T03:47:30.384Z,996.57
2016-04-23T03:48:30.418Z,996.56
2016-04-23T03:49:30.451Z,996.56
2016-04-23T03:50:30.517Z,996.57
2016-04-23T03:51:30.535Z,996.56
2016-04-23T03:52:30.570Z,996.57
2016-04-23T03:53:30.603Z,996.55
2016-04-23T03:54:30.637Z,996.53
2016-04-23T03:55:30.674Z,996.53
2016-04-23T03:56:30.709Z,996.51
2016-04-23T03:57:30.758Z,996.52
2016-04-23T03:58:30.792Z,996.52
2016-04-23T03:59:30.827Z,996.53
2016-04-23T04:00:30.859Z,996.54
2016-04-23T04:01:30.941Z,996.54
2016-04-23T04:02:30.944Z,996.54
2016-04-23T04:03:30.978Z,996.58
2016-04-23T04:04:31.011Z,996.59
2016-04-23T04:05:31.061Z,996.6
2016-04-23T04:06:31.095Z,996.58
2016-04-23T04:07:31.129Z,996.54
2016-04-23T04:08:31.163Z,996.57
2016-04-23T04:09:31.212Z,996.55
2016-04-23T04:10:31.246Z,996.58
2016-04-23T04:11:31.281Z,996.55
2016-04-23T04:12:31.314Z,996.53
2016-04-23T04:13:31.364Z,996.55
2016-04-23T04:14:31.398Z,996.54
2016-04-23T04:15:31.431Z,996.55
2016-04-23T04:16:31.466Z,996.52
2016-04-23T04:17:31.500Z,996.56
2016-04-23T04:18:31.533Z,996.53
2016-04-23T04:19:31.599Z,996.51
2016-04-23T04:20:31.616Z,996.57
2016-04-23T04:21:31.651Z,996.53
2016-04-23T04:22:31.685Z,996.55
2016-04-23T04:23:31.735Z,996.54
2016-04-23T04:24:31.769Z,996.52
2016-04-23T04:25:31.802Z,996.5
2016-04-23T04:26:31.868Z,996.5
2016-04-23T04:27:31.885Z,996.5
2016-04-23T04:28:31.920Z,996.49
2016-04-23T04:29:31.954Z,996.52
2016-04-23T04:30:32.004Z,996.54
2016-04-23T04:31:32.038Z,996.51
2016-04-23T04:32:32.071Z,996.51
2016-04-23T04:33:32.105Z,996.52
2016-04-23T04:34:32.139Z,996.52
2016-04-23T04:35:32.189Z,996.52
2016-04-23T04:36:32.222Z,996.55
2016-04-23T04:37:32.272Z,996.51
2016-04-23T04:38:32.290Z,996.49
2016-04-23T04:39:32.325Z,996.5
2016-04-23T04:40:32.374Z,996.52
2016-04-23T04:41:32.408Z,996.5
2016-04-23T04:42:32.442Z,996.53
2016-04-23T04:43:32.491Z,996.52
2016-04-23T04:44:32.525Z,996.52
2016-04-23T04:45:32.559Z,996.5
2016-04-23T04:46:32.594Z,996.56
2016-04-23T04:47:32.643Z,996.55
2016-04-23T04:48:32.692Z,996.53
2016-04-23T04:49:32.727Z,996.55
2016-04-23T04:50:32.744Z,996.54
2016-04-23T04:51:32.778Z,996.55
2016-04-23T04:52:32.827Z,996.55
2016-04-23T04:53:32.862Z,996.54
2016-04-23T04:54:32.896Z,996.5
2016-04-23T04:55:32.977Z,996.5
2016-04-23T04:56:32.980Z,996.46
2016-04-23T04:57:33.013Z,996.46
2016-04-23T04:58:33.047Z,996.48
2016-04-23T04:59:33.081Z,996.45
2016-04-23T05:00:33.131Z,996.49
2016-04-23T05:01:33.165Z,996.41
2016-04-23T05:02:33.199Z,996.47
2016-04-23T05:03:33.233Z,996.47
2016-04-23T05:04:33.282Z,996.47
2016-04-23T05:05:33.316Z,996.47
2016-04-23T05:06:33.381Z,996.51
2016-04-23T05:07:33.401Z,996.54
2016-04-23T05:08:33.433Z,996.53
2016-04-23T05:09:33.467Z,996.51
2016-04-23T05:10:33.517Z,996.56
2016-04-23T05:11:33.551Z,996.53
2016-04-23T05:12:33.600Z,996.55
2016-04-23T05:13:33.650Z,996.56
2016-04-23T05:14:33.653Z,996.56
2016-04-23T05:15:33.703Z,996.56
2016-04-23T05:16:33.736Z,996.6
2016-04-23T05:17:33.770Z,996.58
2016-04-23T05:18:33.820Z,996.66
2016-04-23T05:19:33.854Z,996.64
2016-04-23T05:20:33.888Z,996.62
2016-04-23T05:21:33.922Z,996.64
2016-04-23T05:22:33.971Z,996.65
2016-04-23T05:23:34.005Z,996.59
2016-04-23T05:24:34.038Z,996.6
2016-04-23T05:25:34.088Z,996.61
2016-04-23T05:26:34.122Z,996.65
2016-04-23T05:27:34.157Z,996.67
2016-04-23T05:28:34.191Z,996.66
2016-04-23T05:29:34.240Z,996.67
2016-04-23T05:30:34.274Z,996.64
2016-04-23T05:31:34.307Z,996.65
2016-04-23T05:32:34.357Z,996.62
2016-04-23T05:33:34.391Z,996.62
2016-04-23T05:34:34.426Z,996.63
2016-04-23T05:35:34.475Z,996.65
2016-04-23T05:36:34.509Z,996.64
2016-04-23T05:37:34.543Z,996.62
2016-04-23T05:38:34.576Z,996.61
2016-04-23T05:39:34.626Z,996.64
2016-04-23T05:40:34.676Z,996.63
2016-04-23T05:41:34.695Z,996.64
2016-04-23T05:42:34.775Z,996.67
2016-04-23T05:43:34.778Z,996.63
2016-04-23T05:44:34.812Z,996.65
2016-04-23T05:45:34.861Z,996.64
2016-04-23T05:46:34.895Z,996.64
2016-04-23T05:47:34.928Z,996.63
2016-04-23T05:48:34.979Z,996.63
2016-04-23T05:49:35.013Z,996.67
2016-04-23T05:50:35.047Z,996.66
2016-04-23T05:51:35.081Z,996.69
2016-04-23T05:52:35.130Z,996.67
2016-04-23T05:53:35.164Z,996.7
2016-04-23T05:54:35.197Z,996.68
2016-04-23T05:55:35.232Z,996.67
2016-04-23T05:56:35.282Z,996.73
2016-04-23T05:57:35.315Z,996.69
2016-04-23T05:58:35.365Z,996.74
2016-04-23T05:59:35.399Z,996.7
2016-04-23T06:00:35.433Z,996.67
2016-04-23T06:01:35.466Z,996.68
2016-04-23T06:02:35.516Z,996.7
2016-04-23T06:03:35.550Z,996.67
2016-04-23T06:04:35.616Z,996.65
2016-04-23T06:05:35.618Z,996.67
2016-04-23T06:06:35.668Z,996.64
2016-04-23T06:07:35.718Z,996.66
2016-04-23T06:08:35.735Z,996.61
2016-04-23T06:09:35.785Z,996.6
2016-04-23T06:10:35.819Z,996.64
2016-04-23T06:11:35.853Z,996.57
2016-04-23T06:12:35.903Z,996.58
2016-04-23T06:13:35.952Z,996.56
2016-04-23T06:14:35.986Z,996.57
2016-04-23T06:15:36.051Z,996.54
2016-04-23T06:16:36.054Z,996.52
2016-04-23T06:17:36.088Z,996.52
2016-04-23T06:18:36.137Z,996.51
2016-04-23T06:19:36.171Z,996.46
2016-04-23T06:20:36.222Z,996.46
2016-04-23T06:21:36.256Z,996.49
2016-04-23T06:22:36.305Z,996.42
2016-04-23T06:23:36.339Z,996.4
2016-04-23T06:24:36.372Z,996.41
2016-04-23T06:25:36.406Z,996.37
2016-04-23T06:26:36.455Z,996.35
2016-04-23T06:27:36.490Z,996.37
2016-04-23T06:28:36.524Z,996.36
2016-04-23T06:29:36.574Z,996.36
2016-04-23T06:30:36.623Z,996.34
2016-04-23T06:31:36.641Z,996.36
2016-04-23T06:32:36.691Z,996.32
2016-04-23T06:33:36.724Z,996.31
2016-04-23T06:34:36.774Z,996.35
2016-04-23T06:35:36.807Z,996.3
2016-04-23T06:36:36.843Z,996.32
2016-04-23T06:37:36.893Z,996.3
2016-04-23T06:38:36.941Z,996.3
2016-04-23T06:39:36.960Z,996.33
2016-04-23T06:40:37.009Z,996.31
2016-04-23T06:41:37.043Z,996.31
2016-04-23T06:42:37.092Z,996.35
2016-04-23T06:43:37.126Z,996.33
2016-04-23T06:44:37.161Z,996.34
2016-04-23T06:45:38.023Z,996.3
2016-04-23T06:46:37.244Z,996.28
2016-04-23T06:47:37.294Z,996.32
2016-04-23T06:48:37.328Z,996.31
2016-04-23T06:49:37.377Z,996.35
2016-04-23T06:50:37.411Z,996.4
2016-04-23T06:51:37.444Z,996.44
2016-04-23T06:52:37.495Z,996.44
2016-04-23T06:53:37.529Z,996.45
2016-04-23T06:54:37.563Z,996.44
2016-04-23T06:55:37.612Z,996.42
2016-04-23T06:56:37.646Z,996.42
2016-04-23T06:57:37.727Z,996.45
2016-04-23T06:58:37.730Z,996.43
2016-04-23T06:59:37.779Z,996.43
2016-04-23T07:00:37.813Z,996.41
2016-04-23T07:01:37.878Z,996.48
2016-04-23T07:02:37.897Z,996.47
2016-04-23T07:03:37.946Z,996.5
2016-04-23T07:04:37.980Z,996.49
2016-04-23T07:05:38.045Z,996.47
2016-04-23T07:06:38.063Z,996.47
2016-04-23T07:07:38.097Z,996.49
2016-04-23T07:08:38.147Z,996.51
2016-04-23T07:09:38.182Z,996.5
2016-04-23T07:10:38.215Z,996.49
2016-04-23T07:11:38.265Z,996.44
2016-04-23T07:12:38.345Z,996.5
2016-04-23T07:13:38.348Z,996.52
2016-04-23T07:14:38.382Z,996.48
2016-04-23T07:15:38.431Z,996.51
2016-04-23T07:16:38.465Z,996.48
2016-04-23T07:17:38.515Z,996.5
2016-04-23T07:18:38.549Z,996.46
2016-04-23T07:19:38.583Z,996.41
2016-04-23T07:20:38.633Z,996.42
2016-04-23T07:21:38.666Z,996.48
2016-04-23T07:22:38.716Z,996.45
2016-04-23T07:23:38.750Z,996.42
2016-04-23T07:24:38.800Z,996.44
2016-04-23T07:25:38.833Z,996.42
2016-04-23T07:26:38.883Z,996.41
2016-04-23T07:27:38.916Z,996.39
2016-04-23T07:28:38.966Z,996.41
2016-04-23T07:29:39.000Z,996.41
2016-04-23T07:30:39.050Z,996.39
2016-04-23T07:31:39.083Z,996.42
2016-04-23T07:32:39.118Z,996.4
2016-04-23T07:33:39.168Z,996.4
2016-04-23T07:34:39.201Z,996.4
2016-04-23T07:35:39.235Z,996.39
2016-04-23T07:36:39.285Z,996.4
2016-04-23T07:37:39.319Z,996.38
2016-04-23T07:38:39.399Z,996.34
2016-04-23T07:39:39.402Z,996.35
2016-04-23T07:40:39.451Z,996.32
2016-04-23T07:41:39.517Z,996.33
2016-04-23T07:42:39.611Z,996.34
2016-04-23T07:43:39.690Z,996.35
2016-04-23T07:44:39.768Z,996.32
2016-04-23T07:45:39.861Z,996.32
2016-04-23T07:46:39.917Z,996.34
2016-04-23T07:47:39.983Z,996.32
2016-04-23T07:48:40.033Z,996.34
2016-04-23T07:49:40.099Z,996.31
2016-04-23T07:50:40.149Z,996.32
2016-04-23T07:51:40.191Z,996.34
2016-04-23T07:52:40.246Z,996.36
2016-04-23T07:53:40.287Z,996.33
2016-04-23T07:54:40.341Z,996.32
2016-04-23T07:55:40.381Z,996.33
2016-04-23T07:56:40.434Z,996.28
2016-04-23T07:57:40.470Z,996.28
2016-04-23T07:58:40.506Z,996.27
2016-04-23T07:59:40.557Z,996.28
2016-04-23T08:00:40.609Z,996.29
2016-04-23T08:01:40.643Z,996.26
2016-04-23T08:02:40.693Z,996.26
2016-04-23T08:03:40.729Z,996.25
2016-04-23T08:04:40.763Z,996.29
2016-04-23T08:05:40.814Z,996.23
2016-04-23T08:06:40.848Z,996.2
2016-04-23T08:07:40.898Z,996.27
2016-04-23T08:08:40.933Z,996.25
2016-04-23T08:09:40.982Z,996.16
2016-04-23T08:10:41.017Z,996.17
2016-04-23T08:11:41.066Z,996.2
2016-04-23T08:12:41.100Z,996.18
2016-04-23T08:13:41.150Z,996.18
2016-04-23T08:14:41.184Z,996.15
2016-04-23T08:15:41.233Z,996.17
2016-04-23T08:16:41.267Z,996.18
2016-04-23T08:17:41.316Z,996.16
2016-04-23T08:18:41.414Z,996.17
2016-04-23T08:19:41.400Z,996.16
2016-04-23T08:20:41.433Z,996.12
2016-04-23T08:21:41.483Z,996.18
2016-04-23T08:22:41.518Z,996.16
2016-04-23T08:23:41.567Z,996.11
2016-04-23T08:24:41.601Z,996.08
2016-04-23T08:25:41.652Z,996.09
2016-04-23T08:26:41.685Z,996.09
2016-04-23T08:27:41.735Z,996.08
2016-04-23T08:28:41.768Z,996.08
2016-04-23T08:29:41.823Z,996.05
2016-04-23T08:30:41.872Z,996.07
2016-04-23T08:31:41.907Z,996.09
2016-04-23T08:32:41.940Z,996.06
2016-04-23T08:33:41.990Z,996.1
2016-04-23T08:34:42.023Z,996.04
2016-04-23T08:35:42.073Z,996.09
2016-04-23T08:36:42.107Z,996.08
2016-04-23T08:37:42.156Z,996.09
2016-04-23T08:38:42.191Z,996.08
2016-04-23T08:39:42.240Z,996.05
2016-04-23T08:40:42.274Z,996.05
2016-04-23T08:41:42.324Z,996.06
2016-04-23T08:42:42.373Z,996.06
2016-04-23T08:43:42.407Z,996.06
2016-04-23T08:44:42.457Z,996.03
2016-04-23T08:45:42.506Z,996.04
2016-04-23T08:46:42.540Z,996.05
2016-04-23T08:47:42.636Z,996.02
2016-04-23T08:48:42.625Z,996.07
2016-04-23T08:49:42.674Z,996.06
2016-04-23T08:50:42.707Z,996.03
2016-04-23T08:51:42.758Z,996.01
2016-04-23T08:52:42.791Z,996.01
2016-04-23T08:53:42.840Z,996.02
2016-04-23T08:54:42.890Z,996.02
2016-04-23T08:55:42.924Z,996.02
2016-04-23T08:56:42.974Z,996
2016-04-23T08:57:43.024Z,996
2016-04-23T08:58:43.073Z,996.01
2016-04-23T08:59:43.107Z,995.99
2016-04-23T09:00:43.156Z,996.03
2016-04-23T09:01:43.190Z,996.05
2016-04-23T09:02:43.224Z,996.01
2016-04-23T09:03:43.273Z,996.06
2016-04-23T09:04:43.307Z,996.01
2016-04-23T09:05:43.357Z,996.04
2016-04-23T09:06:43.407Z,996.03
2016-04-23T09:07:43.440Z,996.01
2016-04-23T09:08:43.490Z,996.02
2016-04-23T09:09:43.539Z,996.01
2016-04-23T09:10:43.573Z,996.01
2016-04-23T09:11:43.623Z,996.03
2016-04-23T09:12:43.704Z,996
2016-04-23T09:13:43.706Z,995.99
2016-04-23T09:14:43.756Z,995.98
2016-04-23T09:15:43.790Z,996.01
2016-04-23T09:16:43.839Z,995.98
2016-04-23T09:17:43.874Z,995.97
2016-04-23T09:18:43.923Z,995.97
2016-04-23T09:19:43.973Z,995.96
2016-04-23T09:20:44.007Z,995.94
2016-04-23T09:21:44.056Z,995.96
2016-04-23T09:22:44.090Z,995.93
2016-04-23T09:23:44.186Z,995.94
2016-04-23T09:24:44.189Z,995.94
2016-04-23T09:25:44.224Z,995.91
2016-04-23T09:26:44.274Z,995.89
2016-04-23T09:27:44.307Z,995.89
2016-04-23T09:28:44.356Z,995.86
2016-04-23T09:29:44.407Z,995.88
2016-04-23T09:30:44.455Z,995.86
2016-04-23T09:31:44.490Z,995.86
2016-04-23T09:32:44.524Z,995.89
2016-04-23T09:33:44.604Z,995.84
2016-04-23T09:34:44.607Z,995.86
2016-04-23T09:35:44.657Z,995.85
2016-04-23T09:36:44.706Z,995.84
2016-04-23T09:37:44.771Z,995.86
2016-04-23T09:38:44.789Z,995.86
2016-04-23T09:39:44.854Z,995.82
2016-04-23T09:40:44.873Z,995.81
2016-04-23T09:41:44.923Z,995.83
2016-04-23T09:42:45.487Z,995.79
2016-04-23T09:43:45.006Z,995.77
2016-04-23T09:44:45.087Z,995.77
2016-04-23T09:45:45.089Z,995.76
2016-04-23T09:46:45.139Z,995.71
2016-04-23T09:47:45.173Z,995.7
2016-04-23T09:48:45.223Z,995.72
2016-04-23T09:49:45.273Z,995.73
2016-04-23T09:50:45.306Z,995.71
2016-04-23T09:51:45.341Z,995.73
2016-04-23T09:52:45.389Z,995.72
2016-04-23T09:53:45.424Z,995.71
2016-04-23T09:54:45.474Z,995.75
2016-04-23T09:55:45.522Z,995.72
2016-04-23T09:56:45.557Z,995.68
2016-04-23T09:57:45.607Z,995.67
2016-04-23T09:58:45.655Z,995.7
2016-04-23T09:59:45.705Z,995.72
2016-04-23T10:00:45.740Z,995.67
2016-04-23T10:01:45.774Z,995.69
2016-04-23T10:02:45.855Z,995.66
2016-04-23T10:03:45.857Z,995.63
2016-04-23T10:04:45.906Z,995.67
2016-04-23T10:05:45.940Z,995.7
2016-04-23T10:06:45.990Z,995.68
2016-04-23T10:07:46.040Z,995.67
2016-04-23T10:08:46.104Z,995.63
2016-04-23T10:09:46.139Z,995.64
2016-04-23T10:10:46.157Z,995.64
2016-04-23T10:11:46.534Z,995.63
2016-04-23T10:12:46.256Z,995.58
2016-04-23T10:13:46.306Z,995.55
2016-04-23T10:14:46.339Z,995.6
2016-04-23T10:15:46.420Z,995.61
2016-04-23T10:16:46.454Z,995.58
2016-04-23T10:17:46.488Z,995.55
2016-04-23T10:18:46.506Z,995.58
2016-04-23T10:19:46.556Z,995.55
2016-04-23T10:20:46.590Z,995.53
2016-04-23T10:21:46.655Z,995.53
2016-04-23T10:22:46.688Z,995.52
2016-04-23T10:23:46.726Z,995.48
2016-04-23T10:24:46.761Z,995.5
2016-04-23T10:25:46.810Z,995.46
2016-04-23T10:26:46.859Z,995.45
2016-04-23T10:27:46.893Z,995.49
2016-04-23T10:28:46.943Z,995.46
2016-04-23T10:29:46.977Z,995.44
2016-04-23T10:30:47.026Z,995.41
2016-04-23T10:31:47.076Z,995.42
2016-04-23T10:32:47.110Z,995.42
2016-04-23T10:33:47.160Z,995.4
2016-04-23T10:34:47.240Z,995.38
2016-04-23T10:35:47.243Z,995.36
2016-04-23T10:36:47.292Z,995.41
2016-04-23T10:37:47.326Z,995.4
2016-04-23T10:38:47.376Z,995.42
2016-04-23T10:39:47.425Z,995.38
2016-04-23T10:40:47.459Z,995.31
2016-04-23T10:41:47.540Z,995.35
2016-04-23T10:42:47.559Z,995.29
2016-04-23T10:43:47.592Z,995.3
2016-04-23T10:44:47.642Z,995.28
2016-04-23T10:45:47.676Z,995.29
2016-04-23T10:46:47.726Z,995.28
2016-04-23T10:47:47.775Z,995.35
2016-04-23T10:48:47.809Z,995.28
2016-04-23T10:49:47.859Z,995.31
2016-04-23T10:50:47.893Z,995.28
2016-04-23T10:51:47.942Z,995.26
2016-04-23T10:52:48.008Z,995.26
2016-04-23T10:53:48.025Z,995.23
2016-04-23T10:54:48.076Z,995.24
2016-04-23T10:55:48.109Z,995.27
2016-04-23T10:56:48.158Z,995.24
2016-04-23T10:57:48.208Z,995.25
2016-04-23T10:58:48.258Z,995.25
2016-04-23T10:59:48.308Z,995.25
2016-04-23T11:00:48.341Z,995.28
2016-04-23T11:01:48.375Z,995.25
2016-04-23T11:02:48.424Z,995.26
2016-04-23T11:03:48.458Z,995.24
2016-04-23T11:04:48.508Z,995.27
2016-04-23T11:05:48.558Z,995.26
2016-04-23T11:06:48.592Z,995.23
2016-04-23T11:07:48.641Z,995.27
2016-04-23T11:08:48.676Z,995.19
2016-04-23T11:09:48.724Z,995.2
2016-04-23T11:10:48.806Z,995.21
2016-04-23T11:11:48.809Z,995.2
2016-04-23T11:12:48.858Z,995.23
2016-04-23T11:13:48.893Z,995.21
2016-04-23T11:14:48.941Z,995.25
2016-04-23T11:15:48.990Z,995.24
2016-04-23T11:16:49.025Z,995.21
2016-04-23T11:17:49.075Z,995.19
2016-04-23T11:18:49.109Z,995.17
2016-04-23T11:19:49.159Z,995.17
2016-04-23T11:20:49.208Z,995.18
2016-04-23T11:21:49.257Z,995.12
2016-04-23T11:22:49.291Z,995.12
2016-04-23T11:23:49.341Z,995.05
2016-04-23T11:24:49.375Z,995.08
2016-04-23T11:25:49.424Z,995.01
2016-04-23T11:26:49.458Z,995.04
2016-04-23T11:27:49.523Z,995.04
2016-04-23T11:28:49.558Z,995.05
2016-04-23T11:29:49.622Z,995.04
2016-04-23T11:30:49.641Z,995.01
2016-04-23T11:31:49.691Z,994.98
2016-04-23T11:32:49.724Z,995
2016-04-23T11:33:49.774Z,995
2016-04-23T11:34:49.808Z,994.93
2016-04-23T11:35:49.858Z,994.91
2016-04-23T11:36:49.891Z,994.86
2016-04-23T11:37:49.941Z,994.86
2016-04-23T11:38:49.975Z,994.97
2016-04-23T11:39:50.040Z,994.95
2016-04-23T11:40:50.074Z,994.91
2016-04-23T11:41:50.107Z,994.94
2016-04-23T11:42:50.157Z,994.87
2016-04-23T11:43:50.207Z,994.85
2016-04-23T11:44:50.241Z,994.88
2016-04-23T11:45:50.276Z,994.92
2016-04-23T11:46:50.324Z,994.86
2016-04-23T11:47:50.373Z,994.88
2016-04-23T11:48:50.409Z,994.78
2016-04-23T11:49:51.020Z,994.81
2016-04-23T11:50:50.523Z,994.78
2016-04-23T11:51:50.542Z,994.77
2016-04-23T11:52:50.576Z,994.8
2016-04-23T11:53:50.625Z,994.79
2016-04-23T11:54:50.658Z,994.77
2016-04-23T11:55:50.708Z,994.79
2016-04-23T11:56:50.742Z,994.78
2016-04-23T11:57:50.808Z,994.76
2016-04-23T11:58:50.825Z,994.76
2016-04-23T11:59:50.875Z,994.73
2016-04-23T12:00:50.925Z,994.76
2016-04-23T12:01:50.959Z,994.73
2016-04-23T12:02:51.008Z,994.73
2016-04-23T12:03:51.042Z,994.68
2016-04-23T12:04:51.263Z,994.72
2016-04-23T12:05:51.141Z,994.76
2016-04-23T12:06:51.175Z,994.74
2016-04-23T12:07:51.225Z,994.69
2016-04-23T12:08:51.274Z,994.65
2016-04-23T12:09:51.308Z,994.69
2016-04-23T12:10:51.343Z,994.69
2016-04-23T12:11:51.391Z,994.67
2016-04-23T12:12:51.441Z,994.65
2016-04-23T12:13:51.475Z,994.67
2016-04-23T12:14:51.509Z,994.6
2016-04-23T12:15:51.559Z,994.59
2016-04-23T12:16:51.609Z,994.59
2016-04-23T12:17:51.642Z,994.54
2016-04-23T12:18:51.692Z,994.55
2016-04-23T12:19:51.741Z,994.56
2016-04-23T12:20:52.620Z,994.59
2016-04-23T12:21:51.809Z,994.54
2016-04-23T12:22:51.859Z,994.49
2016-04-23T12:23:51.892Z,994.51
2016-04-23T12:24:51.942Z,994.5
2016-04-23T12:25:51.992Z,994.54
2016-04-23T12:26:52.057Z,994.5
2016-04-23T12:27:52.076Z,994.47
2016-04-23T12:28:52.125Z,994.52
2016-04-23T12:29:52.158Z,994.52
2016-04-23T12:30:52.208Z,994.53
2016-04-23T12:31:52.242Z,994.4